createdAt,value
2023-03-04T00:00:18.834Z,1.17
2023-03-04T00:02:47.886Z,1.40
2023-03-04T00:05:17.072Z,1.53
2023-03-04T00:07:46.160Z,1.30
2023-03-04T00:10:15.201Z,1.20
2023-03-04T00:12:44.236Z,1.27
2023-03-04T00:15:14.675Z,1.27
2023-03-04T00:17:44.822Z,1.17
2023-03-04T00:20:14.818Z,1.30
2023-03-04T00:22:44.577Z,1.03
2023-03-04T00:25:13.640Z,1.50
2023-03-04T00:27:42.828Z,1.30
2023-03-04T00:30:14.080Z,1.07
2023-03-04T00:32:44.943Z,1.40
2023-03-04T00:35:13.936Z,1.17
2023-03-04T00:37:43.174Z,1.00
2023-03-04T00:40:13.458Z,1.13
2023-03-04T00:42:42.490Z,1.03
2023-03-04T00:45:12.017Z,1.13
2023-03-04T00:47:42.396Z,0.77
2023-03-04T00:50:12.794Z,0.90
2023-03-04T00:52:42.069Z,1.00
2023-03-04T00:55:11.514Z,0.83
2023-03-04T00:57:40.515Z,1.83
2023-03-04T01:00:11.118Z,2.40
2023-03-04T01:02:41.494Z,1.50
2023-03-04T01:05:11.628Z,1.50
2023-03-04T01:07:40.739Z,1.20
2023-03-04T01:10:12.617Z,0.70
2023-03-04T01:12:42.231Z,1.30
2023-03-04T01:15:13.352Z,1.10
2023-03-04T01:17:43.771Z,1.40
2023-03-04T01:20:14.121Z,0.80
2023-03-04T01:22:43.745Z,1.50
2023-03-04T01:25:12.955Z,0.83
2023-03-04T01:27:41.983Z,0.73
2023-03-04T01:30:12.680Z,1.03
2023-03-04T01:32:43.141Z,1.20
2023-03-04T01:35:12.522Z,1.43
2023-03-04T01:37:41.619Z,0.80
2023-03-04T01:40:12.214Z,1.37
2023-03-04T01:42:41.808Z,1.10
2023-03-04T01:45:15.882Z,1.00
2023-03-04T01:47:49.060Z,1.63
2023-03-04T01:50:24.543Z,1.40
2023-03-04T01:52:53.679Z,0.70
2023-03-04T01:55:25.288Z,1.23
2023-03-04T01:57:55.639Z,1.33
2023-03-04T02:00:28.725Z,1.17
2023-03-04T02:03:01.228Z,0.87
2023-03-04T02:05:30.832Z,1.30
2023-03-04T02:08:01.987Z,0.83
2023-03-04T02:10:31.181Z,1.00
2023-03-04T02:13:01.470Z,1.40
2023-03-04T02:15:31.437Z,1.07
2023-03-04T02:18:02.075Z,1.30
2023-03-04T02:20:41.441Z,1.20
2023-03-04T02:23:18.060Z,0.57
2023-03-04T02:25:51.583Z,1.90
2023-03-04T02:28:22.875Z,1.30
2023-03-04T02:30:52.873Z,0.90
2023-03-04T02:33:23.366Z,1.00
2023-03-04T02:35:52.598Z,1.07
2023-03-04T02:38:21.875Z,1.03
2023-03-04T02:40:54.654Z,1.40
2023-03-04T02:43:25.121Z,1.37
2023-03-04T02:45:54.589Z,1.13
2023-03-04T02:48:25.027Z,1.33
2023-03-04T02:50:55.606Z,1.13
2023-03-04T02:53:26.139Z,1.60
2023-03-04T02:55:56.079Z,1.70
2023-03-04T02:58:28.236Z,1.73
2023-03-04T03:00:57.928Z,1.50
2023-03-04T03:03:29.755Z,1.27
2023-03-04T03:05:59.292Z,1.20
2023-03-04T03:08:28.853Z,1.87
2023-03-04T03:10:57.915Z,1.77
2023-03-04T03:13:29.843Z,1.13
2023-03-04T03:15:59.210Z,0.97
2023-03-04T03:18:28.385Z,1.30
2023-03-04T03:20:57.438Z,1.33
2023-03-04T03:23:26.518Z,1.10
2023-03-04T03:25:55.552Z,2.07
2023-03-04T03:28:24.610Z,0.93
2023-03-04T03:30:55.065Z,1.23
2023-03-04T03:33:24.120Z,1.03
2023-03-04T03:35:53.497Z,0.90
2023-03-04T03:38:22.730Z,1.20
2023-03-04T03:40:51.826Z,1.20
2023-03-04T03:43:20.954Z,0.77
2023-03-04T03:45:51.952Z,1.37
2023-03-04T03:48:22.477Z,0.93
2023-03-04T03:50:51.499Z,0.97
2023-03-04T03:53:20.497Z,1.20
2023-03-04T03:55:49.508Z,1.10
2023-03-04T03:58:18.536Z,1.10
2023-03-04T04:00:47.559Z,1.20
2023-03-04T04:03:18.034Z,1.10
2023-03-04T04:05:48.458Z,1.50
2023-03-04T04:08:18.240Z,1.30
2023-03-04T04:10:47.280Z,1.03
2023-03-04T04:13:16.306Z,1.10
2023-03-04T04:15:45.311Z,1.10
2023-03-04T04:18:14.411Z,1.43
2023-03-04T04:20:43.402Z,1.27
2023-03-04T04:23:13.961Z,2.13
2023-03-04T04:25:43.033Z,1.47
2023-03-04T04:28:12.165Z,1.53
2023-03-04T04:30:41.633Z,1.60
2023-03-04T04:33:11.600Z,1.47
2023-03-04T04:35:40.682Z,1.07
2023-03-04T04:38:11.169Z,1.10
2023-03-04T04:40:42.940Z,1.77
2023-03-04T04:43:12.162Z,1.43
2023-03-04T04:45:41.216Z,1.20
2023-03-04T04:48:10.296Z,0.93
2023-03-04T04:50:39.384Z,1.33
2023-03-04T04:53:08.451Z,1.93
2023-03-04T04:55:37.459Z,1.47
2023-03-04T04:58:08.925Z,2.00
2023-03-04T05:00:37.930Z,1.77
2023-03-04T05:03:06.979Z,1.43
2023-03-04T05:05:36.125Z,1.10
2023-03-04T05:08:05.473Z,1.60
2023-03-04T05:10:34.483Z,1.97
2023-03-04T05:13:03.536Z,1.80
2023-03-04T05:15:33.951Z,2.80
2023-03-04T05:18:02.959Z,2.30
2023-03-04T05:20:31.960Z,2.40
2023-03-04T05:23:01.060Z,1.57
2023-03-04T05:25:30.385Z,1.93
2023-03-04T05:28:01.483Z,2.60
2023-03-04T05:30:30.514Z,2.20
2023-03-04T05:33:00.955Z,2.20
2023-03-04T05:35:29.963Z,1.80
2023-03-04T05:37:58.986Z,1.93
2023-03-04T05:40:28.000Z,2.10
2023-03-04T05:42:57.659Z,1.97
2023-03-04T05:45:27.292Z,2.17
2023-03-04T05:47:56.464Z,2.10
2023-03-04T05:50:27.378Z,1.70
2023-03-04T05:52:57.862Z,2.20
2023-03-04T05:55:27.719Z,2.30
2023-03-04T05:57:56.910Z,2.17
2023-03-04T06:00:26.453Z,2.77
2023-03-04T06:02:55.608Z,1.83
2023-03-04T06:05:26.150Z,2.53
2023-03-04T06:07:55.189Z,2.30
2023-03-04T06:10:24.268Z,1.83
2023-03-04T06:12:53.283Z,2.33
2023-03-04T06:15:22.302Z,2.50
2023-03-04T06:17:51.336Z,2.67
2023-03-04T06:20:20.720Z,1.80
2023-03-04T06:22:51.126Z,2.10
2023-03-04T06:25:20.337Z,2.03
2023-03-04T06:27:50.832Z,2.13
2023-03-04T06:30:20.554Z,2.50
2023-03-04T06:32:49.660Z,1.87
2023-03-04T06:35:19.043Z,2.50
2023-03-04T06:37:48.126Z,3.20
2023-03-04T06:40:18.682Z,2.33
2023-03-04T06:42:48.005Z,1.80
2023-03-04T06:45:17.112Z,2.47
2023-03-04T06:47:46.188Z,2.53
2023-03-04T06:50:15.472Z,2.03
2023-03-04T06:52:44.585Z,2.00
2023-03-04T06:55:13.924Z,2.50
2023-03-04T06:57:44.920Z,1.50
2023-03-04T07:00:16.442Z,1.67
2023-03-04T07:02:45.476Z,2.00
2023-03-04T07:05:14.819Z,1.30
2023-03-04T07:07:44.132Z,1.70
2023-03-04T07:10:13.513Z,1.57
2023-03-04T07:12:44.307Z,1.27
2023-03-04T07:15:13.726Z,1.97
2023-03-04T07:17:42.963Z,1.87
2023-03-04T07:20:12.988Z,2.20
2023-03-04T07:22:42.045Z,1.70
2023-03-04T07:25:11.465Z,1.63
2023-03-04T07:27:40.912Z,1.73
2023-03-04T07:30:13.012Z,1.73
2023-03-04T07:32:42.818Z,1.77
2023-03-04T07:35:11.937Z,2.03
2023-03-04T07:37:41.220Z,2.17
2023-03-04T07:40:11.915Z,1.67
2023-03-04T07:42:40.944Z,2.23
2023-03-04T07:45:15.205Z,1.87
2023-03-04T07:47:44.272Z,2.60
2023-03-04T07:50:16.422Z,1.67
2023-03-04T07:52:48.591Z,1.90
2023-03-04T07:55:17.977Z,2.90
2023-03-04T07:57:48.599Z,2.90
2023-03-04T08:00:20.216Z,2.17
2023-03-04T08:02:49.333Z,2.97
2023-03-04T08:05:18.525Z,2.20
2023-03-04T08:07:47.601Z,3.30
2023-03-04T08:10:16.731Z,2.30
2023-03-04T08:12:45.744Z,2.70
2023-03-04T08:15:14.765Z,2.77
2023-03-04T08:17:45.164Z,2.07
2023-03-04T08:20:14.774Z,2.87
2023-03-04T08:22:43.827Z,2.40
2023-03-04T08:25:13.016Z,2.43
2023-03-04T08:27:42.065Z,2.20
2023-03-04T08:30:12.401Z,3.20
2023-03-04T08:32:41.632Z,2.90
2023-03-04T08:35:12.124Z,2.40
2023-03-04T08:37:41.139Z,2.73
2023-03-04T08:40:12.024Z,2.00
2023-03-04T08:42:41.327Z,2.50
2023-03-04T08:45:11.251Z,2.47
2023-03-04T08:47:40.830Z,2.70
2023-03-04T08:50:12.446Z,2.80
2023-03-04T08:52:41.788Z,3.63
2023-03-04T08:55:11.368Z,3.67
2023-03-04T08:57:40.359Z,2.93
2023-03-04T09:00:10.876Z,2.90
2023-03-04T09:02:39.906Z,2.30
2023-03-04T09:05:09.913Z,2.00
2023-03-04T09:07:40.278Z,2.20
2023-03-04T09:10:10.605Z,2.57
2023-03-04T09:12:39.654Z,2.30
2023-03-04T09:15:11.752Z,4.30
2023-03-04T09:17:41.477Z,3.10
2023-03-04T09:20:13.786Z,2.33
2023-03-04T09:22:44.217Z,1.80
2023-03-04T09:25:15.690Z,2.63
2023-03-04T09:27:44.699Z,3.27
2023-03-04T09:30:14.472Z,2.23
2023-03-04T09:32:43.535Z,2.47
2023-03-04T09:35:12.899Z,3.23
2023-03-04T09:37:43.362Z,2.10
2023-03-04T09:40:20.357Z,2.77
2023-03-04T09:42:52.740Z,2.37
2023-03-04T09:45:24.282Z,2.30
2023-03-04T09:47:55.515Z,2.67
2023-03-04T09:50:24.862Z,2.37
2023-03-04T09:53:08.564Z,2.83
2023-03-04T09:55:40.423Z,2.60
2023-03-04T09:58:22.737Z,3.00
2023-03-04T10:00:57.824Z,2.03
2023-03-04T10:03:33.568Z,2.53
2023-03-04T10:06:06.751Z,2.93
2023-03-04T10:08:43.042Z,2.33
2023-03-04T10:11:17.723Z,2.77
2023-03-04T10:13:58.739Z,2.20
2023-03-04T10:16:33.036Z,2.97
2023-03-04T10:19:17.922Z,2.50
2023-03-04T10:21:49.542Z,2.10
2023-03-04T10:24:22.562Z,2.50
2023-03-04T10:26:54.538Z,2.07
2023-03-04T10:29:25.464Z,2.40
2023-03-04T10:31:56.062Z,2.40
2023-03-04T10:34:25.709Z,2.57
2023-03-04T10:37:01.686Z,3.30
2023-03-04T10:39:33.884Z,1.53
2023-03-04T10:42:05.283Z,2.60
2023-03-04T10:44:38.001Z,2.87
2023-03-04T10:47:14.133Z,2.10
2023-03-04T10:49:53.404Z,2.67
2023-03-04T10:52:30.047Z,2.80
2023-03-04T10:55:03.670Z,2.23
2023-03-04T10:57:37.633Z,2.43
2023-03-04T11:00:30.448Z,2.70
2023-03-04T11:03:26.978Z,2.87
2023-03-04T11:06:18.074Z,2.67
2023-03-04T11:08:53.920Z,2.23
2023-03-04T11:11:34.643Z,2.93
2023-03-04T11:14:12.629Z,3.07
2023-03-04T11:16:41.869Z,3.43
2023-03-04T11:19:17.607Z,3.43
2023-03-04T11:21:48.274Z,2.70
2023-03-04T11:24:29.157Z,3.63
2023-03-04T11:27:05.731Z,2.63
2023-03-04T11:29:39.695Z,3.13
2023-03-04T11:32:14.205Z,2.40
2023-03-04T11:34:50.152Z,2.43
2023-03-04T11:37:25.506Z,2.57
2023-03-04T11:39:59.475Z,2.90
2023-03-04T11:42:38.407Z,2.60
2023-03-04T11:45:27.944Z,3.17
2023-03-04T11:48:08.741Z,3.43
2023-03-04T11:50:48.885Z,2.20
2023-03-04T11:53:28.391Z,2.40
2023-03-04T11:56:12.958Z,2.20
2023-03-04T11:59:23.535Z,2.13
2023-03-04T12:02:03.296Z,1.97
2023-03-04T12:05:06.418Z,1.67
2023-03-04T12:07:56.699Z,1.30
2023-03-04T12:10:31.463Z,2.20
2023-03-04T12:13:18.335Z,2.20
2023-03-04T12:15:55.325Z,2.20
2023-03-04T12:18:41.873Z,2.57
2023-03-04T12:21:26.140Z,2.80
2023-03-04T12:24:27.909Z,2.17
2023-03-04T12:27:02.611Z,2.60
2023-03-04T12:29:40.189Z,2.07
2023-03-04T12:32:18.595Z,2.23
2023-03-04T12:35:20.570Z,1.50
2023-03-04T12:38:07.915Z,1.87
2023-03-04T12:40:46.123Z,2.33
2023-03-04T12:43:46.401Z,2.43
2023-03-04T12:46:38.299Z,2.50
2023-03-04T12:49:32.335Z,1.80
2023-03-04T12:52:15.000Z,1.93
2023-03-04T12:54:47.429Z,1.70
2023-03-04T12:57:18.511Z,2.17
2023-03-04T12:59:52.688Z,1.67
2023-03-04T13:02:37.521Z,1.40
2023-03-04T13:05:24.907Z,2.30
2023-03-04T13:08:04.828Z,2.23
2023-03-04T13:10:33.967Z,2.20
2023-03-04T13:13:04.699Z,1.67
2023-03-04T13:15:36.666Z,2.17
2023-03-04T13:18:34.073Z,2.40
2023-03-04T13:21:23.251Z,1.87
2023-03-04T13:23:55.432Z,2.47
2023-03-04T13:26:32.620Z,1.73
2023-03-04T13:29:27.697Z,2.10
2023-03-04T13:32:01.874Z,2.43
2023-03-04T13:34:47.006Z,2.30
2023-03-04T13:37:31.758Z,2.07
2023-03-04T13:40:34.313Z,1.67
2023-03-04T13:43:25.413Z,2.10
2023-03-04T13:45:54.592Z,1.80
2023-03-04T13:48:36.393Z,2.53
2023-03-04T13:51:05.994Z,1.97
2023-03-04T13:53:49.825Z,1.93
2023-03-04T13:56:32.443Z,2.57
2023-03-04T13:59:20.465Z,1.93
2023-03-04T14:02:01.088Z,2.10
2023-03-04T14:04:34.374Z,2.10
2023-03-04T14:07:17.843Z,2.23
2023-03-04T14:09:56.967Z,2.03
2023-03-04T14:12:29.483Z,1.70
2023-03-04T14:15:00.472Z,2.20
2023-03-04T14:17:32.447Z,2.23
2023-03-04T14:20:02.933Z,1.97
2023-03-04T14:22:33.698Z,2.00
2023-03-04T14:25:04.484Z,1.87
2023-03-04T14:27:38.160Z,1.90
2023-03-04T14:30:10.070Z,2.43
2023-03-04T14:32:43.303Z,2.70
2023-03-04T14:35:21.568Z,1.87
2023-03-04T14:37:57.223Z,1.80
2023-03-04T14:40:30.113Z,1.87
2023-03-04T14:43:05.257Z,1.47
2023-03-04T14:45:34.524Z,2.13
2023-03-04T14:48:06.640Z,1.70
2023-03-04T14:50:37.718Z,2.50
2023-03-04T14:53:17.154Z,2.30
2023-03-04T14:56:01.147Z,2.10
2023-03-04T14:58:32.776Z,1.90
2023-03-04T15:01:14.873Z,2.23
2023-03-04T15:03:46.587Z,2.43
2023-03-04T15:06:19.449Z,1.87
2023-03-04T15:08:55.790Z,2.30
2023-03-04T15:11:27.398Z,2.63
2023-03-04T15:14:00.290Z,1.93
2023-03-04T15:16:30.850Z,1.67
2023-03-04T15:19:03.224Z,2.57
2023-03-04T15:21:40.707Z,3.37
2023-03-04T15:24:13.461Z,3.07
2023-03-04T15:26:45.921Z,2.47
2023-03-04T15:29:19.528Z,2.50
2023-03-04T15:31:49.220Z,2.53
2023-03-04T15:34:20.261Z,5.00
2023-03-04T15:36:52.097Z,4.00
2023-03-04T15:39:23.361Z,4.23
2023-03-04T15:41:52.588Z,3.43
2023-03-04T15:44:23.009Z,3.90
2023-03-04T15:46:52.031Z,3.13
2023-03-04T15:49:21.641Z,3.23
2023-03-04T15:51:50.818Z,4.00
2023-03-04T15:54:19.919Z,3.20
2023-03-04T15:56:49.003Z,2.63
2023-03-04T15:59:19.291Z,2.30
2023-03-04T16:01:53.800Z,3.17
2023-03-04T16:04:23.295Z,2.57
2023-03-04T16:06:52.455Z,2.50
2023-03-04T16:09:22.897Z,3.07
2023-03-04T16:11:54.295Z,2.47
2023-03-04T16:14:23.564Z,2.10
2023-03-04T16:16:54.565Z,1.90
2023-03-04T16:19:24.064Z,2.57
2023-03-04T16:21:53.786Z,1.87
2023-03-04T16:24:23.448Z,2.30
2023-03-04T16:26:52.939Z,3.13
2023-03-04T16:29:22.162Z,3.37
2023-03-04T16:31:55.025Z,2.77
2023-03-04T16:34:25.452Z,2.47
2023-03-04T16:36:54.520Z,3.27
2023-03-04T16:39:25.826Z,2.00
2023-03-04T16:41:55.082Z,3.00
2023-03-04T16:44:24.137Z,2.03
2023-03-04T16:46:54.663Z,2.50
2023-03-04T16:49:23.830Z,2.73
2023-03-04T16:51:52.967Z,2.07
2023-03-04T16:54:29.891Z,2.77
2023-03-04T16:56:59.476Z,1.90
2023-03-04T16:59:29.421Z,2.13
2023-03-04T17:02:00.138Z,2.80
2023-03-04T17:04:30.913Z,1.67
2023-03-04T17:07:00.027Z,2.90
2023-03-04T17:09:29.155Z,2.20
2023-03-04T17:11:59.991Z,2.00
2023-03-04T17:14:29.438Z,1.80
2023-03-04T17:17:00.161Z,1.57
2023-03-04T17:19:29.300Z,1.60
2023-03-04T17:21:58.921Z,2.10
2023-03-04T17:24:29.008Z,1.80
2023-03-04T17:26:58.176Z,1.90
2023-03-04T17:29:27.510Z,1.70
2023-03-04T17:31:56.895Z,1.67
2023-03-04T17:34:27.455Z,1.50
2023-03-04T17:36:56.513Z,2.40
2023-03-04T17:39:25.632Z,1.63
2023-03-04T17:41:54.907Z,1.87
2023-03-04T17:44:24.318Z,1.67
2023-03-04T17:46:53.401Z,2.23
2023-03-04T17:49:22.575Z,1.50
2023-03-04T17:51:53.742Z,1.27
2023-03-04T17:54:22.779Z,1.87
2023-03-04T17:56:51.816Z,2.17
2023-03-04T17:59:20.865Z,1.50
2023-03-04T18:01:53.989Z,1.87
2023-03-04T18:04:23.441Z,2.07
2023-03-04T18:06:53.764Z,1.27
2023-03-04T18:09:22.845Z,1.20
2023-03-04T18:11:51.990Z,1.87
2023-03-04T18:14:21.022Z,1.40
2023-03-04T18:16:50.090Z,1.83
2023-03-04T18:19:19.125Z,1.73
2023-03-04T18:21:48.252Z,1.80
2023-03-04T18:24:18.687Z,1.33
2023-03-04T18:26:48.732Z,1.80
2023-03-04T18:29:18.130Z,1.77
2023-03-04T18:31:47.158Z,2.00
2023-03-04T18:34:16.245Z,1.57
2023-03-04T18:36:47.525Z,1.33
2023-03-04T18:39:17.928Z,1.60
2023-03-04T18:41:47.013Z,0.97
2023-03-04T18:44:16.023Z,1.20
2023-03-04T18:46:48.950Z,1.40
2023-03-04T18:49:19.744Z,1.90
2023-03-04T18:51:48.756Z,2.20
2023-03-04T18:54:19.276Z,2.23
2023-03-04T18:56:51.229Z,2.10
2023-03-04T18:59:24.853Z,1.90
2023-03-04T19:01:55.725Z,2.33
2023-03-04T19:04:27.829Z,3.17
2023-03-04T19:06:57.758Z,2.87
2023-03-04T19:09:28.678Z,1.87
2023-03-04T19:11:57.712Z,1.87
2023-03-04T19:14:26.797Z,1.50
2023-03-04T19:16:56.158Z,1.90
2023-03-04T19:19:25.557Z,2.33
2023-03-04T19:21:54.581Z,2.03
2023-03-04T19:24:23.663Z,1.53
2023-03-04T19:26:54.264Z,2.33
2023-03-04T19:29:23.306Z,1.43
2023-03-04T19:31:52.736Z,1.70
2023-03-04T19:34:21.904Z,1.77
2023-03-04T19:36:59.703Z,1.53
2023-03-04T19:39:29.086Z,1.40
2023-03-04T19:41:59.774Z,1.53
2023-03-04T19:44:29.061Z,1.57
2023-03-04T19:46:59.374Z,1.37
2023-03-04T19:49:28.423Z,1.47
2023-03-04T19:51:57.528Z,1.73
2023-03-04T19:54:27.108Z,1.63
2023-03-04T19:56:56.161Z,1.63
2023-03-04T19:59:26.691Z,1.53
2023-03-04T20:01:55.772Z,1.50
2023-03-04T20:04:24.884Z,1.40
2023-03-04T20:06:54.127Z,1.80
2023-03-04T20:09:23.690Z,1.93
2023-03-04T20:11:58.916Z,2.23
2023-03-04T20:14:31.679Z,1.33
2023-03-04T20:17:02.511Z,2.13
2023-03-04T20:19:32.575Z,0.90
2023-03-04T20:22:01.726Z,1.73
2023-03-04T20:24:30.842Z,1.40
2023-03-04T20:27:00.267Z,1.63
2023-03-04T20:29:30.678Z,1.50
2023-03-04T20:32:00.070Z,1.40
2023-03-04T20:34:29.766Z,1.60
2023-03-04T20:37:00.135Z,1.80
2023-03-04T20:39:30.210Z,1.60
2023-03-04T20:41:59.800Z,1.70
2023-03-04T20:44:33.116Z,1.73
2023-03-04T20:47:02.448Z,1.33
2023-03-04T20:49:31.941Z,1.50
2023-03-04T20:52:06.303Z,0.80
2023-03-04T20:54:35.634Z,1.63
2023-03-04T20:57:06.807Z,1.47
2023-03-04T20:59:38.664Z,1.60
2023-03-04T21:02:08.954Z,2.17
2023-03-04T21:04:38.152Z,1.87
2023-03-04T21:07:07.300Z,3.33
2023-03-04T21:09:36.451Z,2.37
2023-03-04T21:12:05.942Z,2.23
2023-03-04T21:14:36.469Z,2.73
2023-03-04T21:17:06.746Z,1.83
2023-03-04T21:19:39.795Z,1.83
2023-03-04T21:22:08.955Z,1.23
2023-03-04T21:24:39.750Z,1.17
2023-03-04T21:27:09.139Z,1.10
2023-03-04T21:29:39.606Z,1.20
2023-03-04T21:32:23.786Z,2.00
2023-03-04T21:34:55.209Z,1.50
2023-03-04T21:37:26.084Z,1.73
2023-03-04T21:39:55.963Z,1.50
2023-03-04T21:42:25.122Z,1.90
2023-03-04T21:44:55.626Z,2.03
2023-03-04T21:47:24.729Z,1.70
2023-03-04T21:49:53.853Z,1.07
2023-03-04T21:52:23.676Z,1.60
2023-03-04T21:54:52.727Z,1.73
2023-03-04T21:57:21.799Z,1.77
2023-03-04T21:59:50.974Z,1.87
2023-03-04T22:02:23.151Z,2.10
2023-03-04T22:04:52.309Z,1.53
2023-03-04T22:07:21.514Z,1.60
2023-03-04T22:09:50.837Z,1.20
2023-03-04T22:12:19.892Z,1.43
2023-03-04T22:14:48.945Z,1.03
2023-03-04T22:17:18.064Z,2.07
2023-03-04T22:19:48.770Z,1.20
2023-03-04T22:22:18.952Z,1.77
2023-03-04T22:24:48.063Z,1.30
2023-03-04T22:27:17.342Z,1.07
2023-03-04T22:29:46.447Z,1.73
2023-03-04T22:32:17.001Z,2.50
2023-03-04T22:34:47.469Z,1.27
2023-03-04T22:37:16.540Z,1.97
2023-03-04T22:39:45.549Z,1.57
2023-03-04T22:42:14.544Z,1.70
2023-03-04T22:44:43.911Z,1.20
2023-03-04T22:47:13.152Z,1.30
2023-03-04T22:49:42.273Z,1.50
2023-03-04T22:52:12.686Z,1.70
2023-03-04T22:54:41.886Z,1.40
2023-03-04T22:57:11.603Z,1.70
2023-03-04T22:59:40.644Z,1.43
2023-03-04T23:02:09.732Z,1.20
2023-03-04T23:04:38.783Z,1.30
2023-03-04T23:07:07.804Z,1.10
2023-03-04T23:09:38.244Z,1.10
2023-03-04T23:12:08.100Z,1.70
2023-03-04T23:14:37.277Z,1.97
2023-03-04T23:17:06.312Z,1.17
2023-03-04T23:19:35.320Z,1.30
2023-03-04T23:22:04.491Z,1.50
2023-03-04T23:24:33.514Z,1.23
2023-03-04T23:27:03.906Z,1.53
2023-03-04T23:29:32.930Z,1.03
2023-03-04T23:32:02.217Z,1.10
2023-03-04T23:34:31.465Z,1.57
2023-03-04T23:37:00.589Z,1.77
2023-03-04T23:39:29.624Z,1.43
2023-03-04T23:41:58.692Z,1.20
2023-03-04T23:44:29.107Z,1.40
2023-03-04T23:46:58.142Z,1.57
2023-03-04T23:49:27.327Z,1.30
2023-03-04T23:51:56.352Z,1.30
2023-03-04T23:54:25.596Z,1.83
2023-03-04T23:56:54.624Z,1.50
2023-03-04T23:59:23.659Z,1.37
